createdAt,value
2022-12-08T00:01:05.882Z,18.54
2022-12-08T00:03:34.284Z,18.57
2022-12-08T00:06:20.478Z,18.62
2022-12-08T00:09:05.795Z,18.57
2022-12-08T00:11:34.354Z,18.51
2022-12-08T00:14:03.799Z,18.47
2022-12-08T00:16:31.751Z,18.45
2022-12-08T00:18:59.685Z,18.42
2022-12-08T00:21:30.699Z,18.42
2022-12-08T00:23:58.582Z,18.41
2022-12-08T00:26:26.445Z,18.40
2022-12-08T00:28:54.386Z,18.39
2022-12-08T00:31:23.672Z,18.38
2022-12-08T00:33:51.683Z,18.36
2022-12-08T00:36:19.560Z,18.35
2022-12-08T00:38:48.462Z,18.35
2022-12-08T00:41:17.635Z,18.34
2022-12-08T00:43:45.604Z,18.33
2022-12-08T00:46:13.627Z,18.33
2022-12-08T00:48:42.940Z,18.34
2022-12-08T00:51:10.841Z,18.34
2022-12-08T00:53:38.727Z,18.34
2022-12-08T00:56:06.952Z,18.33
2022-12-08T00:58:34.814Z,18.32
2022-12-08T01:01:02.809Z,18.32
2022-12-08T01:03:30.778Z,18.30
2022-12-08T01:06:03.686Z,18.30
2022-12-08T01:08:31.616Z,18.31
2022-12-08T01:11:04.342Z,18.29
2022-12-08T01:13:32.226Z,18.29
2022-12-08T01:16:00.112Z,18.28
2022-12-08T01:18:28.135Z,18.26
2022-12-08T01:20:56.099Z,18.24
2022-12-08T01:23:25.402Z,18.24
2022-12-08T01:25:53.277Z,18.24
2022-12-08T01:28:21.232Z,18.24
2022-12-08T01:30:49.126Z,18.25
2022-12-08T01:33:17.048Z,18.23
2022-12-08T01:35:44.941Z,18.22
2022-12-08T01:38:12.850Z,18.23
2022-12-08T01:40:42.152Z,18.23
2022-12-08T01:43:11.162Z,18.22
2022-12-08T01:45:39.185Z,18.22
2022-12-08T01:48:08.877Z,18.24
2022-12-08T01:50:36.874Z,18.25
2022-12-08T01:53:08.075Z,18.25
2022-12-08T01:55:38.261Z,18.27
2022-12-08T01:58:09.614Z,18.26
2022-12-08T02:00:37.544Z,18.25
2022-12-08T02:03:06.441Z,18.26
2022-12-08T02:05:35.302Z,18.25
2022-12-08T02:08:06.705Z,18.25
2022-12-08T02:10:36.010Z,18.24
2022-12-08T02:13:03.984Z,18.23
2022-12-08T02:15:36.216Z,18.23
2022-12-08T02:18:10.497Z,18.23
2022-12-08T02:20:52.407Z,18.23
2022-12-08T02:23:25.607Z,18.24
2022-12-08T02:26:25.835Z,18.26
2022-12-08T02:29:08.970Z,18.30
2022-12-08T02:31:44.762Z,18.30
2022-12-08T02:34:19.612Z,18.29
2022-12-08T02:36:51.358Z,18.27
2022-12-08T02:39:26.074Z,18.27
2022-12-08T02:41:56.820Z,18.27
2022-12-08T02:44:28.046Z,18.25
2022-12-08T02:46:58.464Z,18.26
2022-12-08T02:49:31.192Z,18.27
2022-12-08T02:52:09.330Z,18.27
2022-12-08T02:54:37.215Z,18.27
2022-12-08T02:57:19.263Z,18.25
2022-12-08T02:59:57.715Z,18.24
2022-12-08T03:02:38.834Z,18.23
2022-12-08T03:05:11.464Z,18.21
2022-12-08T03:07:41.140Z,18.23
2022-12-08T03:10:11.357Z,18.22
2022-12-08T03:12:41.110Z,18.22
2022-12-08T03:15:10.441Z,18.21
2022-12-08T03:17:38.386Z,18.21
2022-12-08T03:20:10.201Z,18.20
2022-12-08T03:22:38.079Z,18.20
2022-12-08T03:25:06.846Z,18.20
2022-12-08T03:27:34.732Z,18.18
2022-12-08T03:30:02.871Z,18.15
2022-12-08T03:32:34.309Z,18.16
2022-12-08T03:35:04.405Z,18.14
2022-12-08T03:37:35.537Z,18.12
2022-12-08T03:40:03.902Z,18.12
2022-12-08T03:42:31.957Z,18.10
2022-12-08T03:44:59.907Z,18.08
2022-12-08T03:47:27.786Z,18.07
2022-12-08T03:49:55.651Z,18.06
2022-12-08T03:52:23.579Z,18.07
2022-12-08T03:54:52.824Z,18.04
2022-12-08T03:57:21.659Z,18.05
2022-12-08T03:59:49.578Z,18.07
2022-12-08T04:02:17.601Z,18.09
2022-12-08T04:04:45.551Z,18.09
2022-12-08T04:07:13.479Z,18.09
2022-12-08T04:09:42.187Z,18.08
2022-12-08T04:12:11.504Z,18.08
2022-12-08T04:14:39.386Z,18.08
2022-12-08T04:17:07.320Z,18.07
2022-12-08T04:19:35.200Z,18.08
2022-12-08T04:22:03.090Z,18.08
2022-12-08T04:24:31.031Z,18.08
2022-12-08T04:26:58.905Z,18.08
2022-12-08T04:29:28.157Z,18.07
2022-12-08T04:31:56.114Z,18.08
2022-12-08T04:34:24.233Z,18.07
2022-12-08T04:36:52.085Z,18.05
2022-12-08T04:39:19.964Z,18.05
2022-12-08T04:41:47.912Z,18.04
2022-12-08T04:44:15.810Z,18.05
2022-12-08T04:46:45.099Z,18.05
2022-12-08T04:49:13.094Z,18.03
2022-12-08T04:51:40.965Z,18.03
2022-12-08T04:54:08.864Z,18.05
2022-12-08T04:56:36.801Z,18.05
2022-12-08T04:59:04.688Z,18.05
2022-12-08T05:01:33.882Z,18.02
2022-12-08T05:04:03.223Z,18.01
2022-12-08T05:06:31.176Z,18.01
2022-12-08T05:08:59.058Z,17.99
2022-12-08T05:11:26.938Z,17.97
2022-12-08T05:13:54.953Z,17.98
2022-12-08T05:16:22.884Z,17.98
2022-12-08T05:18:50.806Z,17.96
2022-12-08T05:21:20.133Z,17.96
2022-12-08T05:23:48.066Z,17.96
2022-12-08T05:26:15.930Z,17.96
2022-12-08T05:28:44.300Z,17.96
2022-12-08T05:31:12.533Z,17.96
2022-12-08T05:33:40.599Z,17.99
2022-12-08T05:36:08.878Z,18.02
2022-12-08T05:38:38.208Z,18.05
2022-12-08T05:41:07.189Z,18.09
2022-12-08T05:43:35.147Z,18.10
2022-12-08T05:46:03.059Z,18.09
2022-12-08T05:48:30.963Z,18.11
2022-12-08T05:50:58.859Z,18.10
2022-12-08T05:53:26.792Z,18.14
2022-12-08T05:55:56.044Z,18.16
2022-12-08T05:58:24.202Z,18.13
2022-12-08T06:00:52.141Z,18.12
2022-12-08T06:03:20.123Z,18.13
2022-12-08T06:05:48.200Z,18.13
2022-12-08T06:08:16.158Z,18.12
2022-12-08T06:10:44.639Z,18.12
2022-12-08T06:13:13.960Z,18.11
2022-12-08T06:15:41.838Z,18.10
2022-12-08T06:18:10.704Z,18.12
2022-12-08T06:20:38.635Z,18.15
2022-12-08T06:23:06.529Z,18.12
2022-12-08T06:25:34.512Z,18.12
2022-12-08T06:28:02.383Z,18.11
2022-12-08T06:30:31.651Z,18.09
2022-12-08T06:33:00.116Z,18.08
2022-12-08T06:35:28.006Z,18.07
2022-12-08T06:37:55.920Z,18.11
2022-12-08T06:40:23.890Z,18.12
2022-12-08T06:42:51.827Z,18.11
2022-12-08T06:45:19.841Z,18.09
2022-12-08T06:47:49.089Z,18.06
2022-12-08T06:50:16.986Z,18.05
2022-12-08T06:52:57.043Z,18.03
2022-12-08T06:58:18.760Z,18.01
2022-12-08T07:00:46.799Z,18.03
2022-12-08T07:03:16.216Z,18.09
2022-12-08T07:05:44.353Z,18.12
2022-12-08T07:08:12.499Z,18.12
2022-12-08T07:10:40.472Z,18.12
2022-12-08T07:13:08.374Z,18.13
2022-12-08T07:15:36.289Z,18.16
2022-12-08T07:18:04.279Z,18.23
2022-12-08T07:20:33.532Z,18.24
2022-12-08T07:23:01.439Z,18.23
2022-12-08T07:25:29.385Z,18.25
2022-12-08T07:27:57.268Z,18.28
2022-12-08T07:30:25.247Z,18.27
2022-12-08T07:32:53.297Z,18.29
2022-12-08T07:35:22.182Z,18.32
2022-12-08T07:37:52.297Z,18.33
2022-12-08T07:40:20.351Z,18.31
2022-12-08T07:42:48.224Z,18.27
2022-12-08T07:45:16.205Z,18.25
2022-12-08T07:47:44.071Z,18.24
2022-12-08T07:50:12.177Z,18.24
2022-12-08T07:52:40.088Z,18.24
2022-12-08T07:55:10.516Z,18.21
2022-12-08T07:57:38.411Z,18.21
2022-12-08T08:00:07.845Z,18.20
2022-12-08T08:02:36.151Z,18.20
2022-12-08T08:05:04.494Z,18.19
2022-12-08T08:07:32.625Z,18.17
2022-12-08T08:10:00.492Z,18.14
2022-12-08T08:12:31.698Z,18.13
2022-12-08T08:15:00.232Z,18.11
2022-12-08T08:17:28.485Z,18.13
2022-12-08T08:19:56.597Z,18.12
2022-12-08T08:22:24.478Z,18.12
2022-12-08T08:24:52.385Z,18.10
2022-12-08T08:27:20.295Z,18.11
2022-12-08T08:29:49.560Z,18.12
2022-12-08T08:32:17.482Z,18.12
2022-12-08T08:34:45.367Z,18.13
2022-12-08T08:37:13.337Z,18.12
2022-12-08T08:39:43.012Z,18.12
2022-12-08T08:42:13.835Z,18.13
2022-12-08T08:44:41.757Z,18.13
2022-12-08T08:47:11.099Z,18.12
2022-12-08T08:49:39.029Z,18.13
2022-12-08T08:52:07.037Z,18.15
2022-12-08T08:54:35.514Z,18.14
2022-12-08T08:57:03.473Z,18.13
2022-12-08T08:59:31.445Z,18.13
2022-12-08T09:01:59.455Z,18.12
2022-12-08T09:04:28.869Z,18.11
2022-12-08T09:06:56.820Z,18.12
2022-12-08T09:09:24.684Z,18.13
2022-12-08T09:11:52.586Z,18.13
2022-12-08T09:14:20.507Z,18.15
2022-12-08T09:16:48.499Z,18.19
2022-12-08T09:19:16.419Z,18.22
2022-12-08T09:21:45.704Z,18.23
2022-12-08T09:24:15.966Z,18.24
2022-12-08T09:26:44.367Z,18.26
2022-12-08T09:29:13.713Z,18.27
2022-12-08T09:31:41.844Z,18.27
2022-12-08T09:34:10.151Z,18.29
2022-12-08T09:36:38.044Z,18.27
2022-12-08T09:39:07.481Z,18.27
2022-12-08T09:41:43.297Z,18.27
2022-12-08T09:44:27.062Z,18.29
2022-12-08T09:46:55.198Z,18.27
2022-12-08T09:49:24.576Z,18.25
2022-12-08T09:51:52.436Z,18.24
2022-12-08T09:54:24.056Z,18.24
2022-12-08T09:56:52.528Z,18.23
2022-12-08T09:59:24.122Z,18.23
2022-12-08T10:01:52.667Z,18.24
2022-12-08T10:04:24.030Z,18.24
2022-12-08T10:06:58.892Z,18.23
2022-12-08T10:09:32.171Z,18.24
2022-12-08T10:12:01.637Z,18.23
2022-12-08T10:14:32.528Z,18.22
2022-12-08T10:17:02.266Z,18.21
2022-12-08T10:19:30.215Z,18.19
2022-12-08T10:21:58.236Z,18.18
2022-12-08T10:24:32.553Z,18.18
2022-12-08T10:27:00.431Z,18.19
2022-12-08T10:29:28.347Z,18.19
2022-12-08T10:31:57.594Z,18.18
2022-12-08T10:34:25.494Z,18.17
2022-12-08T10:36:54.708Z,18.18
2022-12-08T10:39:34.868Z,18.15
2022-12-08T10:42:04.255Z,18.14
2022-12-08T10:44:32.144Z,18.12
2022-12-08T10:47:00.066Z,18.11
2022-12-08T10:49:28.942Z,18.12
2022-12-08T10:51:57.865Z,18.10
2022-12-08T10:54:29.773Z,18.11
2022-12-08T10:56:59.052Z,18.11
2022-12-08T10:59:27.023Z,18.12
2022-12-08T11:01:55.778Z,18.14
2022-12-08T11:04:24.987Z,18.16
2022-12-08T11:06:52.926Z,18.17
2022-12-08T11:09:34.083Z,18.18
2022-12-08T11:12:07.949Z,18.19
2022-12-08T11:14:47.951Z,18.19
2022-12-08T11:17:16.745Z,18.18
2022-12-08T11:19:47.591Z,18.18
2022-12-08T11:22:23.067Z,18.15
2022-12-08T11:24:58.319Z,18.16
2022-12-08T11:27:27.651Z,18.18
2022-12-08T11:29:55.546Z,18.17
2022-12-08T11:32:23.461Z,18.19
2022-12-08T11:34:53.052Z,18.20
2022-12-08T11:37:23.782Z,18.20
2022-12-08T11:39:52.956Z,18.19
2022-12-08T11:42:21.951Z,18.20
2022-12-08T11:44:52.529Z,18.20
2022-12-08T11:47:21.802Z,18.19
2022-12-08T11:49:49.782Z,18.20
2022-12-08T11:52:20.578Z,18.20
2022-12-08T11:54:49.962Z,18.20
2022-12-08T11:57:20.805Z,18.21
2022-12-08T11:59:51.552Z,18.23
2022-12-08T12:02:20.980Z,18.23
2022-12-08T12:04:50.674Z,18.23
2022-12-08T12:07:34.738Z,18.23
2022-12-08T12:10:14.072Z,18.23
2022-12-08T12:12:50.753Z,18.23
2022-12-08T12:15:50.688Z,18.23
2022-12-08T12:18:21.177Z,18.24
2022-12-08T12:20:52.665Z,18.22
2022-12-08T12:23:22.169Z,18.21
2022-12-08T12:25:55.326Z,18.23
2022-12-08T12:28:24.092Z,18.26
2022-12-08T12:30:56.604Z,18.31
2022-12-08T12:33:24.763Z,18.38
2022-12-08T12:35:52.620Z,18.37
2022-12-08T12:38:40.753Z,18.35
2022-12-08T12:41:08.620Z,18.31
2022-12-08T12:43:37.289Z,18.27
2022-12-08T12:49:48.791Z,18.24
2022-12-08T12:52:40.784Z,18.24
2022-12-08T12:55:27.742Z,18.23
2022-12-08T12:57:56.320Z,18.22
2022-12-08T13:00:25.081Z,18.23
2022-12-08T13:02:53.045Z,18.24
2022-12-08T13:05:21.825Z,18.27
2022-12-08T13:07:53.286Z,18.30
2022-12-08T13:10:22.748Z,18.34
2022-12-08T13:13:03.770Z,18.34
2022-12-08T13:15:35.691Z,18.35
2022-12-08T13:18:03.583Z,18.33
2022-12-08T13:20:31.507Z,18.34
2022-12-08T13:23:12.476Z,18.36
2022-12-08T13:25:47.229Z,18.38
2022-12-08T13:28:21.983Z,18.37
2022-12-08T13:30:50.322Z,18.38
2022-12-08T13:33:20.200Z,18.40
2022-12-08T13:35:54.833Z,18.41
2022-12-08T13:38:24.098Z,18.43
2022-12-08T13:40:52.231Z,18.45
2022-12-08T13:43:47.390Z,18.47
2022-12-08T13:50:55.740Z,18.50
2022-12-08T13:54:09.910Z,18.49
2022-12-08T13:56:24.856Z,18.48
2022-12-08T13:57:55.342Z,18.49
2022-12-08T14:00:27.468Z,18.48
2022-12-08T14:02:57.455Z,18.49
2022-12-08T14:05:47.572Z,18.49
2022-12-08T14:08:36.381Z,18.49
2022-12-08T14:11:09.362Z,18.48
2022-12-08T14:13:37.248Z,18.46
2022-12-08T14:16:05.195Z,18.45
2022-12-08T14:18:33.112Z,18.44
2022-12-08T14:21:20.407Z,18.45
2022-12-08T14:23:49.230Z,18.45
2022-12-08T14:26:19.056Z,18.44
2022-12-08T14:28:46.964Z,18.42
2022-12-08T14:31:15.109Z,18.40
2022-12-08T14:33:43.237Z,18.40
2022-12-08T14:36:11.169Z,18.40
2022-12-08T14:38:39.155Z,18.39
2022-12-08T14:41:07.841Z,18.39
2022-12-08T14:43:37.161Z,18.39
2022-12-08T14:46:06.372Z,18.38
2022-12-08T14:48:45.880Z,18.36
2022-12-08T14:51:17.610Z,18.36
2022-12-08T14:53:46.823Z,18.37
2022-12-08T14:56:20.076Z,18.33
2022-12-08T14:58:49.638Z,18.33
2022-12-08T15:01:19.107Z,18.32
2022-12-08T15:03:50.952Z,18.32
2022-12-08T15:06:19.474Z,18.30
2022-12-08T15:08:55.864Z,18.31
2022-12-08T15:11:41.715Z,18.30
2022-12-08T15:14:29.599Z,18.29
2022-12-08T15:16:57.635Z,18.29
2022-12-08T15:19:29.549Z,18.29
2022-12-08T15:21:58.713Z,18.26
2022-12-08T15:24:27.870Z,18.25
2022-12-08T15:26:55.720Z,18.24
2022-12-08T15:29:25.542Z,18.24
2022-12-08T15:31:56.874Z,18.24
2022-12-08T15:34:24.838Z,18.23
2022-12-08T15:36:53.717Z,18.21
2022-12-08T15:39:32.988Z,18.20
2022-12-08T15:42:01.134Z,18.22
2022-12-08T15:44:29.295Z,18.20
2022-12-08T15:46:58.633Z,18.20
2022-12-08T15:49:26.602Z,18.19
2022-12-08T15:52:02.004Z,18.20
2022-12-08T15:54:36.040Z,18.19
2022-12-08T15:57:19.012Z,18.20
2022-12-08T15:59:50.043Z,18.19
2022-12-08T16:02:22.573Z,18.17
2022-12-08T16:07:39.569Z,18.14
2022-12-08T16:10:09.111Z,18.16
2022-12-08T16:13:54.907Z,18.16
2022-12-08T16:15:59.084Z,18.16
2022-12-08T16:18:31.239Z,18.14
2022-12-08T16:21:12.421Z,18.13
2022-12-08T16:23:47.144Z,18.13
2022-12-08T16:26:28.653Z,18.14
2022-12-08T16:29:03.613Z,18.13
2022-12-08T16:31:31.585Z,18.12
2022-12-08T16:34:00.956Z,18.13
2022-12-08T16:36:28.874Z,18.12
2022-12-08T16:38:56.742Z,18.12
2022-12-08T16:41:42.154Z,18.11
2022-12-08T16:44:10.018Z,18.11
2022-12-08T16:46:37.919Z,18.11
2022-12-08T16:49:07.396Z,18.11
2022-12-08T16:51:35.356Z,18.11
2022-12-08T16:54:03.260Z,18.11
2022-12-08T16:56:33.485Z,18.12
2022-12-08T16:59:01.713Z,18.10
2022-12-08T17:01:29.697Z,18.09
2022-12-08T17:06:46.927Z,18.10
2022-12-08T17:09:14.808Z,18.08
2022-12-08T17:11:43.846Z,18.08
2022-12-08T17:14:12.198Z,18.09
2022-12-08T17:16:40.167Z,18.09
2022-12-08T17:19:08.273Z,18.07
2022-12-08T17:21:36.204Z,18.07
2022-12-08T17:24:05.744Z,18.06
2022-12-08T17:26:33.679Z,18.07
2022-12-08T17:29:02.545Z,18.05
2022-12-08T17:31:31.308Z,18.07
2022-12-08T17:34:00.006Z,18.06
2022-12-08T17:36:27.955Z,18.07
2022-12-08T17:38:55.951Z,18.04
2022-12-08T17:41:25.210Z,18.04
2022-12-08T17:43:53.089Z,18.02
2022-12-08T17:46:21.366Z,18.03
2022-12-08T17:48:49.482Z,18.03
2022-12-08T17:51:17.366Z,18.03
2022-12-08T17:53:45.315Z,18.02
2022-12-08T17:56:17.034Z,18.01
2022-12-08T17:58:49.897Z,18.00
2022-12-08T18:01:22.149Z,18.00
2022-12-08T18:03:50.129Z,18.00
2022-12-08T18:06:18.173Z,18.04
2022-12-08T18:08:46.407Z,18.05
2022-12-08T18:11:15.152Z,18.05
2022-12-08T18:13:43.270Z,18.05
2022-12-08T18:16:12.688Z,18.05
2022-12-08T18:18:40.579Z,18.06
2022-12-08T18:21:08.500Z,18.09
2022-12-08T18:23:37.106Z,18.11
2022-12-08T18:26:05.379Z,18.15
2022-12-08T18:28:36.653Z,18.16
2022-12-08T18:31:08.646Z,18.16
2022-12-08T18:33:37.970Z,18.15
2022-12-08T18:36:09.379Z,18.16
2022-12-08T18:38:37.526Z,18.16
2022-12-08T18:41:06.772Z,18.19
2022-12-08T18:43:34.792Z,18.20
2022-12-08T18:46:03.346Z,18.21
2022-12-08T18:48:31.365Z,18.21
2022-12-08T18:51:00.616Z,18.18
2022-12-08T18:53:28.533Z,18.17
2022-12-08T18:55:56.426Z,18.16
2022-12-08T18:58:27.181Z,18.15
2022-12-08T19:00:55.118Z,18.13
2022-12-08T19:03:23.211Z,18.13
2022-12-08T19:05:51.156Z,18.11
2022-12-08T19:08:20.738Z,18.10
2022-12-08T19:10:48.686Z,18.10
2022-12-08T19:13:19.704Z,18.10
2022-12-08T19:15:47.613Z,18.10
2022-12-08T19:18:15.695Z,18.09
2022-12-08T19:20:43.580Z,18.07
2022-12-08T19:23:12.805Z,18.08
2022-12-08T19:25:42.101Z,18.07
2022-12-08T19:28:10.023Z,18.04
2022-12-08T19:30:38.045Z,18.04
2022-12-08T19:33:06.361Z,18.03
2022-12-08T19:35:34.280Z,18.02
2022-12-08T19:38:02.166Z,18.02
2022-12-08T19:40:47.596Z,18.01
2022-12-08T19:43:40.606Z,18.00
2022-12-08T19:46:08.749Z,17.98
2022-12-08T19:48:36.793Z,17.99
2022-12-08T19:51:04.712Z,17.97
2022-12-08T19:53:32.742Z,17.96
2022-12-08T19:56:00.680Z,17.98
2022-12-08T19:58:29.975Z,17.99
2022-12-08T20:00:57.885Z,17.99
2022-12-08T20:03:25.829Z,18.00
2022-12-08T20:05:53.868Z,17.98
2022-12-08T20:08:21.873Z,17.95
2022-12-08T20:10:49.810Z,17.94
2022-12-08T20:13:35.024Z,17.96
2022-12-08T20:16:04.340Z,17.94
2022-12-08T20:18:36.048Z,17.93
2022-12-08T20:21:04.196Z,17.92
2022-12-08T20:23:32.102Z,17.92
2022-12-08T20:26:00.106Z,17.92
2022-12-08T20:28:28.042Z,17.91
2022-12-08T20:30:56.102Z,17.90
2022-12-08T20:33:25.443Z,17.88
2022-12-08T20:35:59.312Z,17.89
2022-12-08T20:38:27.368Z,17.88
2022-12-08T20:40:55.437Z,17.88
2022-12-08T20:43:23.536Z,17.89
2022-12-08T20:45:51.448Z,17.89
2022-12-08T20:48:19.342Z,17.88
2022-12-08T20:50:51.046Z,17.88
2022-12-08T20:53:18.997Z,17.89
2022-12-08T20:55:46.928Z,17.90
2022-12-08T20:58:15.039Z,17.90
2022-12-08T21:00:42.965Z,17.89
2022-12-08T21:03:11.080Z,17.90
2022-12-08T21:05:39.512Z,17.91
2022-12-08T21:08:09.024Z,17.89
2022-12-08T21:10:43.526Z,17.88
2022-12-08T21:13:11.903Z,17.88
2022-12-08T21:15:39.929Z,17.87
2022-12-08T21:18:07.941Z,17.86
2022-12-08T21:20:36.125Z,17.84
2022-12-08T21:23:04.337Z,17.85
2022-12-08T21:25:43.331Z,17.85
2022-12-08T21:28:11.191Z,17.85
2022-12-08T21:30:42.093Z,17.85
2022-12-08T21:33:10.162Z,17.84
2022-12-08T21:35:38.236Z,17.83
2022-12-08T21:38:06.491Z,17.81
2022-12-08T21:40:35.224Z,17.79
2022-12-08T21:43:04.579Z,17.79
2022-12-08T21:45:32.949Z,17.80
2022-12-08T21:48:04.549Z,17.81
2022-12-08T21:50:40.048Z,17.84
2022-12-08T21:53:10.876Z,17.84
2022-12-08T21:55:38.800Z,17.82
2022-12-08T21:58:11.267Z,17.82
2022-12-08T22:00:42.296Z,17.83
2022-12-08T22:03:14.139Z,17.82
2022-12-08T22:05:45.020Z,17.83
2022-12-08T22:08:12.873Z,17.81
2022-12-08T22:10:48.012Z,17.82
2022-12-08T22:13:20.511Z,17.82
2022-12-08T22:15:58.361Z,17.80
2022-12-08T22:18:32.783Z,17.79
2022-12-08T22:21:00.856Z,17.77
2022-12-08T22:23:28.989Z,17.78
2022-12-08T22:25:58.398Z,17.77
2022-12-08T22:28:27.672Z,17.73
2022-12-08T22:30:58.665Z,17.70
2022-12-08T22:33:26.644Z,17.72
2022-12-08T22:35:57.961Z,17.74
2022-12-08T22:38:32.010Z,17.78
2022-12-08T22:40:59.944Z,17.82
2022-12-08T22:43:29.524Z,17.77
2022-12-08T22:45:57.475Z,17.74
2022-12-08T22:48:28.161Z,17.72
2022-12-08T22:50:59.674Z,17.71
2022-12-08T22:53:27.626Z,17.71
2022-12-08T22:55:55.693Z,17.69
2022-12-08T22:58:23.693Z,17.69
2022-12-08T23:00:53.314Z,17.70
2022-12-08T23:03:21.238Z,17.68
2022-12-08T23:05:49.310Z,17.68
2022-12-08T23:08:17.905Z,17.67
2022-12-08T23:10:46.669Z,17.66
2022-12-08T23:13:14.840Z,17.67
2022-12-08T23:15:43.053Z,17.68
2022-12-08T23:18:13.900Z,17.68
2022-12-08T23:20:41.887Z,17.69
2022-12-08T23:23:09.861Z,17.68
2022-12-08T23:25:40.925Z,17.68
2022-12-08T23:28:09.032Z,17.68
2022-12-08T23:30:37.144Z,17.67
2022-12-08T23:33:08.379Z,17.70
2022-12-08T23:35:37.713Z,17.70
2022-12-08T23:38:05.637Z,17.66
2022-12-08T23:40:33.679Z,17.65
2022-12-08T23:43:01.629Z,17.65
2022-12-08T23:45:29.670Z,17.68
2022-12-08T23:47:57.664Z,17.69
2022-12-08T23:50:25.664Z,17.69
2022-12-08T23:52:54.969Z,17.71
2022-12-08T23:55:23.006Z,17.73
2022-12-08T23:57:51.086Z,17.77
